Time;durP1;ratioP1;P1;durP2;ratioP2;P2;SDS_P1;SDS_P2;PMS_P1;PMS_P2;Temp;Humidity;BMP_temperature;BMP_pressure;BME280_temperature;BME280_humidity;BME280_pressure;Samples;Min_cycle;Max_cycle;Signal;HPM_P1;HPM_P2
2021/04/28 00:01:47;;;;;;;4.50;2.42;;;;;;;10.25;42.00;99377.97;5057329;28;20108;-84
2021/04/28 00:04:14;;;;;;;3.28;2.28;;;;;;;10.16;40.48;99378.06;5027879;28;20040;-84
2021/04/28 00:06:40;;;;;;;4.57;2.45;;;;;;;9.99;41.48;99377.34;5043016;28;20053;-85
2021/04/28 00:09:06;;;;;;;4.18;2.45;;;;;;;9.87;41.66;99376.13;5036893;28;20067;-85
2021/04/28 00:11:35;;;;;;;5.40;2.83;;;;;;;9.78;41.14;99371.91;5042909;28;20032;-85
2021/04/28 00:14:01;;;;;;;3.80;2.58;;;;;;;9.67;41.29;99365.19;5041942;28;20176;-85
2021/04/28 00:16:27;;;;;;;3.50;2.00;;;;;;;9.71;40.67;99365.66;5038004;28;20045;-84
2021/04/28 00:18:52;;;;;;;2.67;1.80;;;;;;;9.70;41.59;99370.13;5056007;28;20059;-84
2021/04/28 00:21:18;;;;;;;5.65;3.30;;;;;;;9.66;41.95;99374.13;5040434;28;20055;-83
2021/04/28 00:23:44;;;;;;;4.60;3.10;;;;;;;9.73;41.13;99372.41;5045378;28;20087;-84
2021/04/28 00:26:15;;;;;;;3.00;2.20;;;;;;;9.69;42.99;99365.84;5039087;28;20037;-84
2021/04/28 00:28:41;;;;;;;4.20;2.95;;;;;;;9.71;42.75;99365.66;5048135;28;20090;-84
2021/04/28 00:31:07;;;;;;;3.42;2.10;;;;;;;9.59;42.74;99362.59;5049819;28;20047;-85
2021/04/28 00:33:32;;;;;;;3.97;2.50;;;;;;;9.55;42.60;99362.13;5043486;28;20029;-84
2021/04/28 00:36:00;;;;;;;4.85;2.60;;;;;;;9.62;41.59;99364.06;5058988;28;20115;-84
2021/04/28 00:38:26;;;;;;;3.38;2.53;;;;;;;9.44;44.04;99357.25;5025465;28;20042;-84
2021/04/28 00:40:52;;;;;;;5.25;3.10;;;;;;;9.23;44.80;99351.75;5049693;28;20101;-85
2021/04/28 00:43:18;;;;;;;3.72;2.53;;;;;;;9.16;43.14;99346.34;5042880;28;20036;-84
2021/04/28 00:45:45;;;;;;;5.68;3.00;;;;;;;9.28;42.70;99346.78;5042156;28;20032;-84
2021/04/28 00:48:11;;;;;;;3.92;2.33;;;;;;;9.16;44.03;99346.34;5045315;28;20048;-84
2021/04/28 00:50:39;;;;;;;3.35;2.30;;;;;;;9.04;45.34;99334.53;5043354;28;21584;-85
2021/04/28 00:53:07;;;;;;;6.25;2.92;;;;;;;8.98;44.41;99343.91;5056521;28;20028;-84
2021/04/28 00:55:32;;;;;;;4.72;2.45;;;;;;;8.86;46.09;99332.09;5040887;28;20051;-84
2021/04/28 00:57:58;;;;;;;4.88;2.53;;;;;;;8.89;43.90;99332.59;5048664;28;20607;-84
2021/04/28 01:00:25;;;;;;;4.57;3.10;;;;;;;8.85;46.79;99335.75;5057692;28;20040;-84
2021/04/28 01:02:52;;;;;;;3.78;2.55;;;;;;;8.80;46.34;99336.25;5038558;28;20034;-85
2021/04/28 01:05:20;;;;;;;4.60;2.50;;;;;;;8.70;45.69;99339.09;5061677;28;20024;-85
2021/04/28 01:07:47;;;;;;;3.53;2.40;;;;;;;8.70;44.94;99330.34;5051541;28;20033;-85
2021/04/28 01:10:17;;;;;;;5.50;2.58;;;;;;;8.76;44.31;99328.84;5039394;28;20044;-84
2021/04/28 01:12:42;;;;;;;4.70;2.40;;;;;;;8.84;44.21;99334.09;5041726;28;20416;-84
2021/04/28 01:15:13;;;;;;;4.32;2.58;;;;;;;8.82;44.55;99325.53;5042460;28;20032;-84
2021/04/28 01:17:39;;;;;;;5.65;2.30;;;;;;;8.71;46.33;99329.34;5060394;28;20068;-83
2021/04/28 01:20:07;;;;;;;4.07;2.53;;;;;;;8.55;48.87;99332.03;5045992;28;20523;-83
2021/04/28 01:22:44;;;;;;;5.13;2.58;;;;;;;8.43;49.21;99326.28;5049180;28;20033;-84
2021/04/28 01:25:12;;;;;;;5.18;2.92;;;;;;;8.40;46.36;99324.81;5038850;28;20080;-84
2021/04/28 01:27:41;;;;;;;4.82;2.97;;;;;;;8.48;47.33;99326.59;5047398;28;20037;-83
2021/04/28 01:30:09;;;;;;;3.83;2.42;;;;;;;8.52;48.80;99321.84;5041739;28;20029;-84
2021/04/28 01:32:39;;;;;;;4.88;2.70;;;;;;;8.48;46.61;99322.16;5060692;28;20024;-84
2021/04/28 01:35:05;;;;;;;5.10;3.38;;;;;;;8.52;45.65;99321.84;5057544;28;20036;-84
2021/04/28 01:37:32;;;;;;;3.78;2.80;;;;;;;8.45;47.92;99326.94;5024098;28;20107;-84
2021/04/28 01:39:58;;;;;;;5.18;3.60;;;;;;;8.56;46.26;99323.16;5040779;28;20048;-83
2021/04/28 01:42:23;;;;;;;6.20;3.17;;;;;;;8.46;48.43;99312.78;5025807;28;20128;-84
2021/04/28 01:44:50;;;;;;;5.78;3.30;;;;;;;8.50;46.36;99322.81;5061611;28;20037;-83
2021/04/28 01:47:19;;;;;;;4.72;3.20;;;;;;;8.52;46.06;99319.19;5040467;28;20504;-84
2021/04/28 01:49:46;;;;;;;5.68;3.40;;;;;;;8.58;46.81;99319.34;5021490;28;20037;-84
2021/04/28 01:52:11;;;;;;;5.85;3.15;;;;;;;8.71;45.79;99321.44;5039315;28;20825;-84
2021/04/28 01:54:37;;;;;;;5.55;3.22;;;;;;;8.87;45.60;99326.69;5045538;28;20033;-83
2021/04/28 01:57:04;;;;;;;5.03;2.97;;;;;;;9.02;45.70;99324.13;5044581;28;20037;-84
2021/04/28 01:59:30;;;;;;;5.75;2.92;;;;;;;9.21;44.02;99332.63;5042160;28;20032;-83
2021/04/28 02:01:57;;;;;;;6.15;3.30;;;;;;;9.30;44.00;99335.06;5048018;28;20106;-83
2021/04/28 02:04:23;;;;;;;4.30;3.10;;;;;;;9.37;43.44;99332.56;5044474;28;20346;-84
2021/04/28 02:06:49;;;;;;;6.93;3.33;;;;;;;9.49;43.13;99331.16;5044189;28;20052;-84
2021/04/28 02:09:15;;;;;;;3.67;2.60;;;;;;;9.53;43.18;99323.69;5059151;28;20489;-84
2021/04/28 02:11:49;;;;;;;3.83;2.40;;;;;;;9.50;43.35;99332.78;5066113;28;20044;-84
2021/04/28 02:14:16;;;;;;;5.00;3.20;;;;;;;9.43;45.81;99328.41;5037511;28;20391;-84
2021/04/28 02:16:43;;;;;;;4.63;2.78;;;;;;;9.27;48.42;99331.94;5057447;28;20037;-85
2021/04/28 02:19:11;;;;;;;6.15;3.25;;;;;;;9.03;48.92;99328.41;5046806;28;20560;-84
2021/04/28 02:21:45;;;;;;;4.93;3.15;;;;;;;8.76;49.79;99326.22;5049388;28;20039;-84
2021/04/28 02:24:13;;;;;;;5.82;3.10;;;;;;;8.61;47.23;99326.91;5041995;28;20033;-85
2021/04/28 02:26:40;;;;;;;3.95;2.60;;;;;;;8.41;48.37;99325.63;5056827;28;20040;-84
2021/04/28 02:29:05;;;;;;;4.45;3.10;;;;;;;8.13;48.28;99310.19;5050515;28;20053;-84
2021/04/28 02:31:31;;;;;;;4.63;2.95;;;;;;;7.92;48.98;99309.84;5041126;28;20032;-84
2021/04/28 02:33:56;;;;;;;6.35;3.30;;;;;;;7.89;50.80;99308.38;5039935;28;20025;-85
2021/04/28 02:36:25;;;;;;;3.50;2.42;;;;;;;7.91;49.76;99302.94;5038969;28;20041;-85
2021/04/28 02:38:59;;;;;;;3.63;2.58;;;;;;;7.96;48.80;99290.94;5040433;28;20072;-84
2021/04/28 02:41:25;;;;;;;5.30;3.22;;;;;;;8.00;50.15;99294.03;5040845;28;20573;-84
2021/04/28 02:43:52;;;;;;;4.40;2.55;;;;;;;8.05;49.77;99287.28;5045639;28;20059;-84
2021/04/28 02:46:19;;;;;;;4.85;2.60;;;;;;;8.08;51.72;99294.06;5039622;28;20381;-85
2021/04/28 02:48:48;;;;;;;3.47;2.60;;;;;;;8.04;50.88;99285.66;5043138;28;20060;-84
2021/04/28 02:51:13;;;;;;;5.97;3.10;;;;;;;7.96;49.42;99283.03;5047219;28;20092;-84
2021/04/28 02:53:44;;;;;;;4.45;2.92;;;;;;;7.85;51.34;99275.47;5041967;28;20037;-84
2021/04/28 02:56:11;;;;;;;7.18;3.00;;;;;;;7.88;50.19;99280.41;5044155;28;20048;-84
2021/04/28 02:58:38;;;;;;;5.13;3.20;;;;;;;8.03;48.33;99281.38;5039223;28;20075;-84
2021/04/28 03:01:06;;;;;;;4.60;3.22;;;;;;;8.18;48.38;99272.81;5039804;28;20116;-85
2021/04/28 03:03:35;;;;;;;4.97;2.95;;;;;;;8.32;47.35;99277.41;5039984;28;20041;-86
2021/04/28 03:06:00;;;;;;;6.00;2.97;;;;;;;8.34;48.24;99266.69;5039931;28;20069;-84
2021/04/28 03:08:27;;;;;;;4.30;2.75;;;;;;;8.37;50.17;99271.63;5039145;28;20045;-85
2021/04/28 03:10:52;;;;;;;3.97;2.88;;;;;;;8.37;48.63;99271.63;5012195;28;20116;-84
2021/04/28 03:13:18;;;;;;;4.78;2.65;;;;;;;8.31;48.68;99270.47;5040058;28;20067;-84
2021/04/28 03:15:49;;;;;;;4.65;2.90;;;;;;;8.15;50.03;99268.72;5041005;28;20036;-85
2021/04/28 03:18:16;;;;;;;4.55;2.72;;;;;;;8.01;51.13;99270.19;5041791;28;20063;-84
2021/04/28 03:20:45;;;;;;;5.03;3.10;;;;;;;7.88;50.91;99275.13;5041972;28;20038;-85
2021/04/28 03:23:14;;;;;;;4.93;3.30;;;;;;;7.82;50.92;99268.72;5050323;28;20059;-84
2021/04/28 03:25:41;;;;;;;5.57;3.25;;;;;;;7.78;50.92;99272.66;5009878;28;20045;-84
2021/04/28 03:28:06;;;;;;;4.40;2.88;;;;;;;7.82;50.20;99268.72;5058320;28;20080;-85
2021/04/28 03:30:33;;;;;;;4.65;2.65;;;;;;;7.87;49.70;99271.69;5045241;28;20036;-84
2021/04/28 03:33:00;;;;;;;3.65;2.38;;;;;;;7.96;52.70;99271.66;5045830;28;20036;-85
2021/04/28 03:35:26;;;;;;;4.10;2.55;;;;;;;8.04;49.19;99272.50;5029212;28;20057;-83
2021/04/28 03:37:52;;;;;;;4.28;2.40;;;;;;;8.19;47.93;99271.81;5041481;28;20064;-85
2021/04/28 03:40:17;;;;;;;3.50;2.35;;;;;;;8.24;51.13;99275.56;5041394;28;20033;-83
2021/04/28 03:42:43;;;;;;;3.97;2.88;;;;;;;8.30;48.35;99269.66;5062223;28;20531;-84
2021/04/28 03:45:09;;;;;;;5.90;3.30;;;;;;;8.33;48.11;99267.69;5045312;28;20435;-85
2021/04/28 03:47:35;;;;;;;5.35;3.50;;;;;;;8.41;49.16;99281.66;5043713;28;20037;-84
2021/04/28 03:50:01;;;;;;;7.47;4.10;;;;;;;8.53;47.05;99283.94;5045158;28;20160;-86
2021/04/28 03:52:28;;;;;;;6.05;3.67;;;;;;;8.64;46.71;99281.78;5048406;28;20582;-85
2021/04/28 03:54:53;;;;;;;6.10;3.40;;;;;;;8.72;46.90;99286.19;5046894;28;20037;-85
2021/04/28 03:57:20;;;;;;;8.32;3.88;;;;;;;8.76;46.42;99284.03;5042501;28;20041;-84
2021/04/28 03:59:47;;;;;;;7.00;3.33;;;;;;;8.79;46.40;99287.16;5059799;28;20041;-84
2021/04/28 04:02:12;;;;;;;7.57;3.97;;;;;;;8.85;46.30;99291.75;5053932;28;20040;-82
2021/04/28 04:04:41;;;;;;;5.60;3.53;;;;;;;8.90;45.83;99297.31;5045593;28;20039;-85
2021/04/28 04:07:18;;;;;;;5.32;3.60;;;;;;;9.00;45.85;99291.84;5050198;28;20057;-84
2021/04/28 04:09:49;;;;;;;5.50;3.90;;;;;;;9.05;46.04;99292.16;5048559;28;20544;-85
2021/04/28 04:12:18;;;;;;;6.05;4.03;;;;;;;9.11;45.41;99293.28;5048877;28;20032;-85
2021/04/28 04:14:46;;;;;;;5.07;3.30;;;;;;;9.08;45.64;99296.25;5050334;28;20037;-84
2021/04/28 04:17:18;;;;;;;6.05;3.53;;;;;;;9.07;45.63;99290.16;5042968;28;20065;-84
2021/04/28 04:19:43;;;;;;;6.68;3.90;;;;;;;9.05;45.52;99293.97;5051227;28;20044;-85
2021/04/28 04:22:09;;;;;;;5.28;3.10;;;;;;;9.01;45.77;99292.66;5069641;28;20029;-84
2021/04/28 04:24:34;;;;;;;5.97;3.50;;;;;;;8.97;46.41;99297.47;5053440;28;20067;-85
2021/04/28 04:27:00;;;;;;;3.15;2.40;;;;;;;8.91;46.73;99292.88;5044773;28;20103;-85
2021/04/28 04:29:26;;;;;;;5.25;3.00;;;;;;;8.95;46.02;99296.00;5044837;28;20037;-85
2021/04/28 04:31:52;;;;;;;3.80;2.85;;;;;;;8.92;46.58;99302.44;5044414;28;20041;-84
2021/04/28 04:34:17;;;;;;;5.60;3.03;;;;;;;8.96;46.11;99303.72;5016676;28;20044;-84
2021/04/28 04:36:43;;;;;;;5.10;3.00;;;;;;;8.88;47.96;99301.13;5039614;28;20040;-84
2021/04/28 04:39:09;;;;;;;4.93;3.40;;;;;;;8.88;46.92;99303.75;5064051;28;20028;-85
2021/04/28 04:41:37;;;;;;;7.82;4.03;;;;;;;8.77;47.27;99301.50;5059652;28;20037;-84
2021/04/28 04:44:03;;;;;;;6.82;4.45;;;;;;;8.89;46.51;99308.88;5046516;28;20029;-84
2021/04/28 04:46:29;;;;;;;8.32;4.10;;;;;;;9.01;46.43;99311.97;5050073;28;20391;-85
2021/04/28 04:48:54;;;;;;;6.40;3.95;;;;;;;9.08;46.14;99307.66;5063580;28;20033;-85
2021/04/28 04:51:20;;;;;;;6.38;4.18;;;;;;;9.16;46.15;99311.22;5059732;28;20559;-84
2021/04/28 04:53:45;;;;;;;7.38;4.20;;;;;;;9.23;45.67;99310.38;5061436;28;20044;-84
2021/04/28 04:56:11;;;;;;;9.07;4.43;;;;;;;9.34;45.94;99307.34;5045825;28;20036;-84
2021/04/28 04:58:36;;;;;;;6.50;4.32;;;;;;;9.43;45.20;99304.66;5042415;28;20037;-83
2021/04/28 05:01:03;;;;;;;9.20;4.75;;;;;;;9.49;45.03;99307.41;5060305;28;20061;-84
2021/04/28 05:03:30;;;;;;;7.35;4.45;;;;;;;9.56;44.85;99311.00;5041552;28;20059;-84
2021/04/28 05:05:55;;;;;;;8.35;4.20;;;;;;;9.59;45.13;99307.19;5050795;28;20392;-84
2021/04/28 05:08:21;;;;;;;6.40;3.83;;;;;;;9.50;46.89;99309.03;5047014;28;20041;-84
2021/04/28 05:10:46;;;;;;;5.75;3.88;;;;;;;9.28;47.11;99312.50;5057964;28;20033;-83
2021/04/28 05:13:12;;;;;;;6.93;3.83;;;;;;;9.03;48.58;99306.50;5022270;28;20060;-85
2021/04/28 05:15:38;;;;;;;6.07;3.60;;;;;;;8.82;49.62;99307.91;5040669;28;20041;-84
2021/04/28 05:18:04;;;;;;;7.47;3.75;;;;;;;8.71;50.26;99311.72;5045303;28;20039;-85
2021/04/28 05:20:30;;;;;;;9.23;4.05;;;;;;;8.68;49.53;99308.63;5048690;28;20064;-84
2021/04/28 05:22:55;;;;;;;8.88;3.58;;;;;;;8.54;50.92;99318.03;5045427;28;20029;-85
2021/04/28 05:25:21;;;;;;;7.10;4.05;;;;;;;8.30;51.49;99314.44;5041996;28;20497;-85
2021/04/28 05:27:46;;;;;;;6.25;3.35;;;;;;;8.50;50.54;99311.44;5055758;28;20037;-85
2021/04/28 05:30:13;;;;;;;5.82;3.42;;;;;;;8.77;49.71;99307.59;5048337;28;20036;-84
2021/04/28 05:32:40;;;;;;;8.07;3.90;;;;;;;9.13;49.06;99315.03;5044372;28;20037;-85
2021/04/28 05:35:18;;;;;;;8.13;3.50;;;;;;;9.45;48.43;99315.84;5037881;28;20132;-85
2021/04/28 05:37:44;;;;;;;7.15;3.85;;;;;;;9.59;48.00;99309.00;5068205;28;20033;-85
2021/04/28 05:40:10;;;;;;;6.35;3.70;;;;;;;9.73;47.75;99316.97;5046020;28;20032;-85
2021/04/28 05:42:37;;;;;;;6.25;3.38;;;;;;;9.93;47.51;99319.97;5041462;28;20040;-85
2021/04/28 05:45:08;;;;;;;5.55;3.40;;;;;;;10.10;47.39;99320.63;5054672;28;20040;-85
2021/04/28 05:47:34;;;;;;;5.47;2.92;;;;;;;10.30;47.38;99322.84;5047435;28;20038;-87
2021/04/28 05:49:59;;;;;;;9.57;4.22;;;;;;;10.66;46.86;99322.97;5046452;28;20072;-84
2021/04/28 05:52:25;;;;;;;5.72;3.40;;;;;;;10.92;46.61;99321.69;5046992;28;20096;-84
2021/04/28 05:54:50;;;;;;;8.18;4.10;;;;;;;11.18;45.97;99321.19;5051773;28;20037;-85
2021/04/28 05:57:16;;;;;;;6.68;4.10;;;;;;;11.21;45.41;99326.94;5047471;28;20091;-85
2021/04/28 05:59:44;;;;;;;7.55;4.15;;;;;;;11.42;44.82;99333.28;5056676;22;20088;-67
2021/04/28 06:02:11;;;;;;;8.25;4.15;;;;;;;11.57;44.62;99331.41;5025790;28;20067;-68
2021/04/28 06:04:37;;;;;;;8.35;4.22;;;;;;;11.78;43.60;99327.94;5049463;28;20033;-67
2021/04/28 06:07:02;;;;;;;5.63;4.00;;;;;;;12.13;42.97;99324.63;5052116;28;20068;-67
2021/04/28 06:09:29;;;;;;;6.35;4.13;;;;;;;12.42;41.25;99326.25;5044363;28;20049;-67
2021/04/28 06:11:54;;;;;;;6.40;3.85;;;;;;;12.75;41.70;99326.47;5040740;28;20679;-67
2021/04/28 06:14:19;;;;;;;5.25;3.40;;;;;;;12.63;42.67;99331.53;5035932;28;20029;-67
2021/04/28 06:16:45;;;;;;;6.20;3.65;;;;;;;12.96;41.04;99331.69;5038636;28;20056;-67
2021/04/28 06:19:10;;;;;;;8.25;4.20;;;;;;;12.60;41.90;99325.78;5033312;28;20087;-66
2021/04/28 06:21:37;;;;;;;3.92;2.78;;;;;;;12.84;42.27;99337.75;5048104;28;20056;-66
2021/04/28 06:24:04;;;;;;;5.32;3.30;;;;;;;13.16;42.04;99328.31;5049030;28;20489;-67
2021/04/28 06:26:30;;;;;;;6.80;3.97;;;;;;;13.51;40.26;99337.03;5049022;28;20097;-67
2021/04/28 06:28:55;;;;;;;4.93;3.58;;;;;;;13.73;40.33;99339.53;5033205;28;20104;-67
2021/04/28 06:31:20;;;;;;;6.32;3.75;;;;;;;13.90;38.64;99332.84;5046433;28;20033;-66
2021/04/28 06:33:47;;;;;;;8.95;3.15;;;;;;;14.28;39.13;99340.22;5035121;28;20528;-67
2021/04/28 06:36:12;;;;;;;5.68;3.38;;;;;;;14.58;37.23;99340.63;5037376;28;20033;-66
2021/04/28 06:38:38;;;;;;;8.80;3.50;;;;;;;14.84;38.44;99339.75;5043119;28;20545;-68
2021/04/28 06:41:04;;;;;;;10.52;4.18;;;;;;;15.18;37.40;99340.50;5045284;28;20041;-68
2021/04/28 06:43:29;;;;;;;7.78;3.40;;;;;;;15.30;36.45;99343.28;5048544;28;20448;-68
2021/04/28 06:45:55;;;;;;;8.45;4.10;;;;;;;15.67;36.34;99341.66;5050367;28;20033;-68
2021/04/28 06:48:21;;;;;;;5.10;2.90;;;;;;;15.91;36.32;99345.44;5047705;28;20545;-67
2021/04/28 06:50:46;;;;;;;7.13;3.80;;;;;;;16.15;35.38;99343.03;5054295;28;20025;-67
2021/04/28 06:53:12;;;;;;;6.35;4.18;;;;;;;16.31;34.97;99342.47;5045457;28;20057;-67
2021/04/28 06:55:37;;;;;;;5.53;3.35;;;;;;;16.37;35.13;99345.31;5036457;28;20041;-67
2021/04/28 06:58:03;;;;;;;5.53;3.30;;;;;;;16.59;35.13;99345.72;5047548;28;20056;-66
2021/04/28 07:00:29;;;;;;;6.00;3.72;;;;;;;16.65;34.75;99345.66;5047505;28;20520;-67
2021/04/28 07:02:55;;;;;;;5.60;3.65;;;;;;;16.87;34.54;99350.59;5040302;28;20171;-66
2021/04/28 07:05:21;;;;;;;4.47;3.20;;;;;;;16.74;34.58;99343.53;5049923;28;20025;-66
2021/04/28 07:07:47;;;;;;;6.32;3.33;;;;;;;17.22;34.83;99348.16;5049912;28;20087;-64
2021/04/28 07:10:13;;;;;;;5.65;3.35;;;;;;;17.49;34.15;99348.63;5033159;28;20120;-65
2021/04/28 07:12:39;;;;;;;6.35;3.30;;;;;;;17.66;32.91;99348.81;5049895;28;20033;-64
2021/04/28 07:15:05;;;;;;;6.30;3.33;;;;;;;18.07;33.63;99354.44;5043074;28;20448;-65
2021/04/28 07:17:31;;;;;;;7.25;3.85;;;;;;;18.15;32.75;99357.59;5038198;28;20398;-64
2021/04/28 07:19:57;;;;;;;5.15;3.08;;;;;;;18.37;33.71;99351.69;5037651;28;20033;-64
2021/04/28 07:22:22;;;;;;;7.38;3.83;;;;;;;18.72;31.86;99349.03;5043346;28;20048;-67
2021/04/28 07:24:49;;;;;;;5.07;3.25;;;;;;;19.04;31.18;99343.28;5048598;28;20068;-64
2021/04/28 07:27:15;;;;;;;5.57;3.47;;;;;;;18.84;31.21;99359.75;5039157;28;20045;-64
2021/04/28 07:29:40;;;;;;;8.55;3.70;;;;;;;19.15;32.27;99355.84;5048229;28;20029;-65
2021/04/28 07:32:05;;;;;;;7.85;4.38;;;;;;;19.89;30.30;99353.28;5049281;28;20147;-65
2021/04/28 07:34:31;;;;;;;5.60;3.28;;;;;;;20.03;29.93;99353.78;5048752;28;20116;-65
2021/04/28 07:36:56;;;;;;;8.45;3.78;;;;;;;20.57;28.68;99351.47;5037928;28;20034;-64
2021/04/28 07:39:21;;;;;;;6.78;3.72;;;;;;;20.53;29.16;99349.47;5042610;28;20039;-65
2021/04/28 07:41:47;;;;;;;4.88;3.08;;;;;;;20.92;30.25;99353.00;5045716;28;20033;-65
2021/04/28 07:44:14;;;;;;;6.60;3.22;;;;;;;20.52;29.33;99345.97;5043891;28;20034;-65
2021/04/28 07:46:40;;;;;;;6.50;3.90;;;;;;;20.89;29.54;99353.50;5038270;28;20033;-64
2021/04/28 07:49:05;;;;;;;4.93;3.13;;;;;;;21.22;28.15;99349.09;5049346;28;20029;-64
2021/04/28 07:51:32;;;;;;;8.30;4.60;;;;;;;21.82;27.12;99353.53;5046010;28;20428;-64
2021/04/28 07:53:57;;;;;;;8.70;4.40;;;;;;;22.17;25.93;99352.22;5049584;28;20041;-64
2021/04/28 07:56:22;;;;;;;6.70;4.00;;;;;;;22.14;26.30;99346.53;5046068;28;20057;-64
2021/04/28 07:58:48;;;;;;;6.63;3.42;;;;;;;21.95;27.97;99336.16;5043135;28;20045;-65
2021/04/28 08:01:13;;;;;;;5.50;3.72;;;;;;;22.63;26.35;99346.41;5049912;28;20056;-64
2021/04/28 08:03:38;;;;;;;7.82;3.97;;;;;;;23.02;25.86;99343.38;5047819;28;20040;-64
2021/04/28 08:06:04;;;;;;;9.65;4.97;;;;;;;23.27;25.21;99348.09;5049066;28;20564;-65
2021/04/28 08:08:29;;;;;;;6.53;4.65;;;;;;;23.52;25.01;99337.34;5042117;28;20508;-65
2021/04/28 08:10:54;;;;;;;6.13;3.92;;;;;;;23.31;24.67;99341.06;5041504;28;20029;-65
2021/04/28 08:13:20;;;;;;;8.52;5.18;;;;;;;24.02;23.41;99340.44;5048192;28;20745;-65
2021/04/28 08:15:47;;;;;;;9.88;5.80;;;;;;;23.84;23.82;99330.97;5043547;28;20040;-65
2021/04/28 08:18:12;;;;;;;8.23;4.40;;;;;;;23.65;23.92;99327.97;5048487;28;20505;-66
2021/04/28 08:20:38;;;;;;;8.50;5.28;;;;;;;23.88;23.88;99331.25;5049114;28;20086;-65
2021/04/28 08:23:04;;;;;;;7.10;4.68;;;;;;;24.20;23.24;99325.59;5048870;28;20115;-64
2021/04/28 08:25:29;;;;;;;9.60;5.57;;;;;;;24.62;22.19;99340.69;5048979;28;20037;-64
2021/04/28 08:27:55;;;;;;;10.25;5.47;;;;;;;24.75;22.83;99337.41;5045395;28;20298;-65
2021/04/28 08:30:20;;;;;;;9.43;4.40;;;;;;;24.80;23.00;99337.41;5046620;28;20029;-65
2021/04/28 08:32:46;;;;;;;6.13;3.70;;;;;;;24.95;23.75;99338.44;5048952;28;20029;-65
2021/04/28 08:35:14;;;;;;;6.18;4.10;;;;;;;25.38;21.21;99328.78;5047248;28;20276;-65
2021/04/28 08:37:41;;;;;;;9.30;5.18;;;;;;;25.96;20.86;99328.19;5048779;28;20033;-65
2021/04/28 08:40:07;;;;;;;6.20;3.90;;;;;;;25.77;22.52;99330.75;5038470;28;20037;-65
2021/04/28 08:42:32;;;;;;;5.50;4.25;;;;;;;26.20;21.47;99330.97;5041061;28;20037;-65
2021/04/28 08:44:59;;;;;;;5.15;3.60;;;;;;;26.41;21.73;99336.19;5046378;28;20033;-65
2021/04/28 08:47:25;;;;;;;6.00;3.70;;;;;;;26.45;21.34;99342.66;5027373;28;20114;-65
2021/04/28 08:49:50;;;;;;;7.85;5.28;;;;;;;27.12;21.15;99342.78;5044397;28;20091;-65
2021/04/28 08:52:16;;;;;;;7.07;5.07;;;;;;;27.30;19.74;99339.31;5047386;28;20037;-66
2021/04/28 08:54:42;;;;;;;6.22;4.53;;;;;;;26.95;20.74;99329.69;5039312;28;20041;-65
2021/04/28 08:57:10;;;;;;;10.90;5.85;;;;;;;27.31;20.04;99330.06;5035527;28;20065;-65
2021/04/28 08:59:35;;;;;;;8.25;6.03;;;;;;;27.36;19.59;99334.63;5048652;28;20041;-65
2021/04/28 09:02:26;;;;;;;6.93;5.15;;;;;;;26.55;20.36;99329.03;5043176;28;20520;-65
2021/04/28 09:05:13;;;;;;;7.07;4.50;;;;;;;26.17;22.89;99326.13;5044705;28;20595;-65
2021/04/28 09:07:43;;;;;;;9.00;5.85;;;;;;;27.58;20.40;99325.91;5040918;28;20124;-65
2021/04/28 09:10:10;;;;;;;6.43;4.10;;;;;;;27.49;20.00;99331.19;5051519;28;20033;-66
2021/04/28 09:12:39;;;;;;;10.18;6.50;;;;;;;27.70;19.53;99331.72;5052390;28;20040;-66
2021/04/28 09:15:08;;;;;;;9.23;5.60;;;;;;;27.68;19.98;99330.38;5052696;28;20057;-65
2021/04/28 09:17:52;;;;;;;6.30;5.15;;;;;;;26.86;20.51;99317.84;5037556;28;20029;-64
2021/04/28 09:20:33;;;;;;;8.85;5.25;;;;;;;26.15;21.40;99313.94;5045061;28;20386;-65
2021/04/28 09:23:16;;;;;;;9.88;6.70;;;;;;;26.32;21.28;99314.34;5052404;28;20159;-65
2021/04/28 09:25:47;;;;;;;7.28;5.30;;;;;;;25.39;22.96;99305.28;5045488;28;20037;-65
2021/04/28 09:28:22;;;;;;;7.50;5.50;;;;;;;25.92;22.60;99296.53;5051500;28;20039;-66
2021/04/28 09:30:48;;;;;;;7.72;5.60;;;;;;;25.70;22.08;99305.06;5045964;28;20130;-65
2021/04/28 09:33:13;;;;;;;10.32;7.00;;;;;;;25.70;21.64;99305.06;5043822;28;20477;-65
2021/04/28 09:35:39;;;;;;;10.40;6.60;;;;;;;25.63;21.91;99295.38;5047113;28;20497;-65
2021/04/28 09:38:05;;;;;;;6.90;5.53;;;;;;;24.91;22.95;99291.41;5053537;28;20044;-65
2021/04/28 09:40:42;;;;;;;11.07;7.03;;;;;;;25.23;22.11;99282.91;5045721;28;20596;-66
2021/04/28 09:43:09;;;;;;;8.57;5.60;;;;;;;24.30;23.39;99290.44;5052048;28;20047;-65
2021/04/28 09:45:51;;;;;;;7.32;5.15;;;;;;;24.68;24.22;99287.44;5046235;28;20087;-65
2021/04/28 09:48:26;;;;;;;8.63;5.78;;;;;;;24.90;24.07;99287.06;5052017;28;20264;-65
2021/04/28 09:51:09;;;;;;;7.40;5.63;;;;;;;24.85;23.82;99285.19;5050287;28;20064;-65
2021/04/28 09:53:34;;;;;;;8.82;5.53;;;;;;;24.29;26.37;99280.75;5051277;28;20363;-65
2021/04/28 09:56:00;;;;;;;9.35;6.88;;;;;;;24.50;24.33;99280.72;5051463;28;20063;-65
2021/04/28 09:58:48;;;;;;;8.20;5.35;;;;;;;24.40;24.90;99272.59;5052360;28;20037;-65
2021/04/28 10:01:15;;;;;;;7.80;6.10;;;;;;;24.21;24.89;99267.78;5051541;28;20194;-65
2021/04/28 10:03:45;;;;;;;7.43;5.15;;;;;;;23.55;26.76;99268.59;5049301;28;20037;-65
2021/04/28 10:06:11;;;;;;;7.60;5.60;;;;;;;23.92;26.28;99272.94;5051479;28;20041;-65
2021/04/28 10:08:36;;;;;;;9.23;7.57;;;;;;;24.29;24.36;99274.53;5052082;28;20044;-65
2021/04/28 10:11:02;;;;;;;10.13;5.45;;;;;;;23.79;25.37;99268.91;5050959;28;20059;-65
2021/04/28 10:13:27;;;;;;;9.30;7.28;;;;;;;23.95;24.15;99267.81;5051223;28;20025;-65
2021/04/28 10:15:53;;;;;;;10.15;6.18;;;;;;;23.65;26.76;99263.19;5042397;28;20398;-65
2021/04/28 10:18:22;;;;;;;10.93;7.93;;;;;;;23.57;25.81;99266.41;5045784;28;20167;-65
2021/04/28 10:20:49;;;;;;;9.02;6.43;;;;;;;23.36;26.15;99265.59;5051113;28;20187;-65
2021/04/28 10:23:19;;;;;;;11.52;7.60;;;;;;;23.09;26.66;99266.56;5048361;28;20030;-65
2021/04/28 10:25:49;;;;;;;10.00;7.63;;;;;;;22.69;27.24;99261.81;5052763;28;20495;-65
2021/04/28 10:28:15;;;;;;;11.20;7.80;;;;;;;22.48;27.60;99269.78;5048252;28;20034;-65
2021/04/28 10:30:43;;;;;;;10.55;8.18;;;;;;;22.71;28.55;99266.94;5051957;28;20029;-65
2021/04/28 10:33:23;;;;;;;10.82;6.82;;;;;;;22.43;26.46;99266.28;5044658;28;20040;-65
2021/04/28 10:35:50;;;;;;;13.77;8.85;;;;;;;22.41;26.43;99263.03;5052153;28;20040;-65
2021/04/28 10:38:24;;;;;;;14.82;9.50;;;;;;;22.83;24.95;99257.56;5042654;28;20116;-66
2021/04/28 10:40:49;;;;;;;13.20;9.18;;;;;;;22.93;24.70;99258.66;5050943;28;20040;-65
2021/04/28 10:43:17;;;;;;;15.88;10.45;;;;;;;23.00;24.18;99254.69;5045345;28;20029;-66
2021/04/28 10:45:42;;;;;;;14.63;9.57;;;;;;;22.84;24.67;99256.50;5047927;28;20508;-66
2021/04/28 10:48:14;;;;;;;14.82;9.15;;;;;;;22.74;25.64;99250.22;5050249;28;20033;-66
2021/04/28 10:50:42;;;;;;;12.50;8.60;;;;;;;22.60;25.85;99258.81;5049830;28;20045;-66
2021/04/28 10:53:24;;;;;;;15.93;10.48;;;;;;;22.97;24.62;99246.28;5051314;28;20044;-66
2021/04/28 10:56:07;;;;;;;12.05;8.60;;;;;;;22.34;24.74;99251.66;5043509;28;20111;-65
2021/04/28 10:58:33;;;;;;;14.27;8.82;;;;;;;22.36;25.64;99244.16;5037261;28;20048;-65
2021/04/28 11:01:04;;;;;;;13.43;9.02;;;;;;;22.62;25.80;99245.06;5042514;28;20490;-65
2021/04/28 11:03:33;;;;;;;14.20;9.63;;;;;;;22.68;25.17;99235.94;5036931;28;20032;-65
2021/04/28 11:09:07;;;;;;;12.38;9.00;;;;;;;22.81;25.54;99226.53;5041948;28;20516;-65
2021/04/28 11:11:37;;;;;;;11.98;8.05;;;;;;;22.63;26.30;99225.94;5044818;28;20079;-66
2021/04/28 11:14:11;;;;;;;14.50;9.05;;;;;;;22.98;25.29;99221.81;5047705;28;20094;-66
2021/04/28 11:16:44;;;;;;;11.90;8.55;;;;;;;22.94;24.84;99217.19;5051247;28;20079;-65
2021/04/28 11:19:31;;;;;;;13.93;9.32;;;;;;;22.94;23.69;99226.06;5046348;28;20033;-66
2021/04/28 11:22:06;;;;;;;10.82;8.68;;;;;;;22.79;24.21;99221.44;5039835;28;20038;-66
2021/04/28 11:24:51;;;;;;;15.57;8.85;;;;;;;22.83;24.51;99210.94;5038165;28;20040;-66
2021/04/28 11:27:45;;;;;;;11.13;7.60;;;;;;;22.23;25.35;99218.47;5034414;28;20037;-65
2021/04/28 11:30:36;;;;;;;13.10;7.43;;;;;;;22.04;25.63;99213.47;5034466;28;20063;-66
2021/04/28 11:33:13;;;;;;;9.45;6.32;;;;;;;22.10;25.17;99214.34;5049746;28;20065;-65
2021/04/28 11:35:45;;;;;;;10.45;7.32;;;;;;;22.36;23.65;99217.22;5047252;28;20484;-65
2021/04/28 11:38:16;;;;;;;9.73;6.75;;;;;;;22.47;23.24;99213.47;5047240;28;20577;-65
2021/04/28 11:41:10;;;;;;;10.43;6.40;;;;;;;22.51;21.69;99216.47;5047190;28;20155;-66
2021/04/28 11:43:41;;;;;;;10.80;7.07;;;;;;;22.31;23.25;99217.16;5036071;28;20048;-65